createdAt,value
2018-04-12T00:00:30.782Z,10.98
2018-04-12T00:01:30.774Z,11.05
2018-04-12T00:02:30.769Z,11.13
2018-04-12T00:03:30.767Z,11.24
2018-04-12T00:04:30.757Z,11.23
2018-04-12T00:05:30.748Z,11.27
2018-04-12T00:06:30.742Z,11.30
2018-04-12T00:07:30.736Z,11.26
2018-04-12T00:08:30.731Z,11.31
2018-04-12T00:09:30.733Z,11.33
2018-04-12T00:10:30.717Z,11.31
2018-04-12T00:11:30.711Z,11.49
2018-04-12T00:12:30.704Z,11.53
2018-04-12T00:13:30.701Z,11.56
2018-04-12T00:14:30.692Z,11.64
2018-04-12T00:15:30.686Z,11.62
2018-04-12T00:16:30.678Z,11.79
2018-04-12T00:17:30.671Z,11.97
2018-04-12T00:18:30.666Z,11.96
2018-04-12T00:19:30.659Z,11.87
2018-04-12T00:20:30.653Z,11.94
2018-04-12T00:21:30.645Z,12.05
2018-04-12T00:22:30.642Z,11.90
2018-04-12T00:23:30.634Z,12.03
2018-04-12T00:24:30.627Z,12.11
2018-04-12T00:25:30.621Z,11.97
2018-04-12T00:26:30.616Z,12.08
2018-04-12T00:27:30.609Z,12.13
2018-04-12T00:28:30.604Z,12.21
2018-04-12T00:29:30.596Z,12.22
2018-04-12T00:30:30.591Z,12.19
2018-04-12T00:31:30.588Z,12.13
2018-04-12T00:32:30.579Z,12.22
2018-04-12T00:33:30.570Z,12.22
2018-04-12T00:34:30.565Z,12.23
2018-04-12T00:35:30.559Z,12.19
2018-04-12T00:36:30.553Z,12.13
2018-04-12T00:37:30.547Z,12.19
2018-04-12T00:38:30.541Z,12.18
2018-04-12T00:39:30.536Z,12.21
2018-04-12T00:40:30.529Z,12.23
2018-04-12T00:41:30.523Z,12.19
2018-04-12T00:42:30.517Z,12.21
2018-04-12T00:43:30.511Z,12.18
2018-04-12T00:44:30.505Z,12.16
2018-04-12T00:45:30.497Z,12.11
2018-04-12T00:46:30.492Z,12.15
2018-04-12T00:47:30.486Z,12.12
2018-04-12T00:48:30.481Z,12.23
2018-04-12T00:49:30.474Z,12.21
2018-04-12T00:50:30.467Z,12.25
2018-04-12T00:51:30.461Z,12.30
2018-04-12T00:52:30.455Z,12.23
2018-04-12T00:53:30.448Z,12.21
2018-04-12T00:54:30.442Z,12.19
2018-04-12T00:55:30.438Z,12.26
2018-04-12T00:56:30.431Z,12.21
2018-04-12T00:57:30.429Z,12.21
2018-04-12T00:58:30.420Z,12.25
2018-04-12T00:59:30.414Z,12.23
2018-04-12T01:00:30.408Z,12.25
2018-04-12T01:01:30.401Z,12.22
2018-04-12T01:02:30.397Z,12.13
2018-04-12T01:03:30.390Z,12.19
2018-04-12T01:04:30.386Z,12.15
2018-04-12T01:05:30.377Z,12.12
2018-04-12T01:06:30.371Z,11.96
2018-04-12T01:07:30.366Z,12.13
2018-04-12T01:08:30.360Z,12.04
2018-04-12T01:09:30.353Z,12.04
2018-04-12T01:10:30.348Z,12.12
2018-04-12T01:11:30.341Z,12.00
2018-04-12T01:12:30.336Z,12.01
2018-04-12T01:13:30.331Z,12.01
2018-04-12T01:14:30.324Z,11.94
2018-04-12T01:15:30.318Z,11.96
2018-04-12T01:16:30.313Z,11.96
2018-04-12T01:17:30.307Z,11.88
2018-04-12T01:18:30.301Z,11.88
2018-04-12T01:19:30.293Z,11.87
2018-04-12T01:20:30.289Z,11.88
2018-04-12T01:21:30.282Z,11.88
2018-04-12T01:22:30.274Z,11.81
2018-04-12T01:23:30.270Z,11.79
2018-04-12T01:24:30.264Z,11.94
2018-04-12T01:25:30.257Z,11.97
2018-04-12T01:26:30.251Z,11.96
2018-04-12T01:27:30.245Z,11.93
2018-04-12T01:28:30.239Z,12.01
2018-04-12T01:29:30.233Z,11.97
2018-04-12T01:30:30.228Z,11.93
2018-04-12T01:31:30.222Z,11.94
2018-04-12T01:32:30.216Z,12.00
2018-04-12T01:33:30.209Z,12.01
2018-04-12T01:34:30.202Z,11.97
2018-04-12T01:35:30.198Z,11.98
2018-04-12T01:36:30.195Z,11.98
2018-04-12T01:37:30.190Z,12.03
2018-04-12T01:38:30.178Z,11.97
2018-04-12T01:39:30.171Z,12.07
2018-04-12T01:40:30.166Z,12.07
2018-04-12T01:41:30.159Z,12.13
2018-04-12T01:42:30.152Z,12.04
2018-04-12T01:43:30.150Z,12.05
2018-04-12T01:44:30.141Z,12.08
2018-04-12T01:45:30.135Z,12.05
2018-04-12T01:46:30.129Z,12.03
2018-04-12T01:47:30.123Z,12.11
2018-04-12T01:48:30.117Z,12.08
2018-04-12T01:49:30.109Z,11.93
2018-04-12T01:50:30.104Z,12.03
2018-04-12T01:51:30.097Z,12.01
2018-04-12T01:52:30.092Z,11.90
2018-04-12T01:53:30.084Z,12.03
2018-04-12T01:54:30.078Z,12.05
2018-04-12T01:55:30.072Z,11.93
2018-04-12T01:56:30.066Z,11.90
2018-04-12T01:57:30.060Z,11.90
2018-04-12T01:58:30.056Z,11.90
2018-04-12T01:59:30.049Z,11.94
2018-04-12T02:00:30.048Z,12.03
2018-04-12T02:01:30.051Z,11.94
2018-04-12T02:02:30.030Z,11.97
2018-04-12T02:03:30.023Z,12.04
2018-04-12T02:04:30.021Z,12.00
2018-04-12T02:05:30.011Z,11.97
2018-04-12T02:06:30.005Z,12.03
2018-04-12T02:07:29.999Z,11.97
2018-04-12T02:08:29.994Z,11.90
2018-04-12T02:09:29.985Z,11.90
2018-04-12T02:10:29.979Z,11.90
2018-04-12T02:11:29.973Z,11.97
2018-04-12T02:12:29.968Z,11.98
2018-04-12T02:13:29.963Z,11.94
2018-04-12T02:14:29.956Z,11.88
2018-04-12T02:15:29.951Z,11.88
2018-04-12T02:16:29.945Z,11.96
2018-04-12T02:17:29.938Z,11.90
2018-04-12T02:18:29.931Z,11.94
2018-04-12T02:19:29.925Z,11.96
2018-04-12T02:20:29.919Z,11.97
2018-04-12T02:21:29.912Z,12.04
2018-04-12T02:22:29.909Z,11.96
2018-04-12T02:23:29.903Z,11.98
2018-04-12T02:24:29.894Z,12.04
2018-04-12T02:25:29.889Z,11.98
2018-04-12T02:26:29.883Z,11.98
2018-04-12T02:27:29.877Z,11.94
2018-04-12T02:28:29.871Z,12.01
2018-04-12T02:29:29.864Z,12.00
2018-04-12T02:30:29.858Z,11.97
2018-04-12T02:31:29.855Z,11.97
2018-04-12T02:32:29.846Z,11.94
2018-04-12T02:33:29.837Z,11.94
2018-04-12T02:34:29.832Z,11.97
2018-04-12T02:35:29.825Z,11.93
2018-04-12T02:36:29.820Z,11.94
2018-04-12T02:37:29.812Z,11.97
2018-04-12T02:38:29.813Z,11.97
2018-04-12T02:39:29.801Z,11.96
2018-04-12T02:40:29.795Z,12.00
2018-04-12T02:41:29.788Z,11.98
2018-04-12T02:42:29.783Z,11.94
2018-04-12T02:43:29.776Z,11.98
2018-04-12T02:44:29.772Z,11.90
2018-04-12T02:45:29.766Z,11.96
2018-04-12T02:46:29.762Z,11.97
2018-04-12T02:47:29.753Z,11.94
2018-04-12T02:48:29.749Z,11.90
2018-04-12T02:49:29.739Z,12.07
2018-04-12T02:50:29.733Z,11.97
2018-04-12T02:51:29.727Z,11.90
2018-04-12T02:52:29.721Z,11.90
2018-04-12T02:53:29.710Z,11.96
2018-04-12T02:54:29.704Z,11.94
2018-04-12T02:55:29.702Z,11.94
2018-04-12T02:56:29.696Z,11.82
2018-04-12T02:57:29.686Z,11.87
2018-04-12T02:58:29.680Z,11.85
2018-04-12T02:59:29.674Z,11.82
2018-04-12T03:00:29.667Z,11.82
2018-04-12T03:01:29.662Z,11.77
2018-04-12T03:02:29.655Z,11.81
2018-04-12T03:03:29.651Z,11.93
2018-04-12T03:04:29.643Z,11.93
2018-04-12T03:05:29.639Z,11.93
2018-04-12T03:06:29.637Z,11.88
2018-04-12T03:07:29.623Z,11.93
2018-04-12T03:08:29.619Z,11.87
2018-04-12T03:09:29.614Z,11.93
2018-04-12T03:10:29.608Z,11.93
2018-04-12T03:11:29.599Z,11.84
2018-04-12T03:12:29.592Z,11.94
2018-04-12T03:13:29.586Z,11.87
2018-04-12T03:14:29.580Z,11.90
2018-04-12T03:15:29.574Z,11.87
2018-04-12T03:16:29.567Z,11.96
2018-04-12T03:17:29.564Z,11.97
2018-04-12T03:18:29.558Z,11.94
2018-04-12T03:19:29.547Z,11.88
2018-04-12T03:20:29.542Z,11.94
2018-04-12T03:21:29.535Z,11.87
2018-04-12T03:22:29.530Z,11.88
2018-04-12T03:23:29.524Z,11.90
2018-04-12T03:24:29.570Z,11.87
2018-04-12T03:25:29.510Z,11.79
2018-04-12T03:26:29.505Z,11.85
2018-04-12T03:27:29.498Z,11.90
2018-04-12T03:28:29.493Z,11.79
2018-04-12T03:29:29.489Z,11.79
2018-04-12T03:30:29.484Z,11.78
2018-04-12T03:31:29.473Z,11.70
2018-04-12T03:32:29.467Z,11.78
2018-04-12T03:33:29.459Z,11.77
2018-04-12T03:34:29.455Z,11.75
2018-04-12T03:35:29.451Z,11.81
2018-04-12T03:36:29.445Z,11.69
2018-04-12T03:37:29.462Z,11.74
2018-04-12T03:38:29.429Z,11.75
2018-04-12T03:39:29.421Z,11.78
2018-04-12T03:40:29.415Z,11.62
2018-04-12T03:41:29.408Z,11.72
2018-04-12T03:42:29.402Z,11.75
2018-04-12T03:43:29.400Z,11.75
2018-04-12T03:44:29.390Z,11.74
2018-04-12T03:45:29.382Z,11.70
2018-04-12T03:46:29.376Z,11.70
2018-04-12T03:47:29.374Z,11.67
2018-04-12T03:48:29.369Z,11.69
2018-04-12T03:49:29.458Z,11.62
2018-04-12T03:50:29.372Z,11.64
2018-04-12T03:51:29.346Z,11.67
2018-04-12T03:52:29.340Z,11.56
2018-04-12T03:53:29.332Z,11.64
2018-04-12T03:54:29.331Z,11.57
2018-04-12T03:55:29.321Z,11.60
2018-04-12T03:56:29.314Z,11.59
2018-04-12T03:57:29.307Z,11.57
2018-04-12T03:58:29.304Z,11.57
2018-04-12T03:59:29.295Z,11.56
2018-04-12T04:00:29.288Z,11.54
2018-04-12T04:01:29.285Z,11.59
2018-04-12T04:02:29.291Z,11.64
2018-04-12T04:03:29.267Z,11.64
2018-04-12T04:04:29.263Z,11.62
2018-04-12T04:05:29.254Z,11.62
2018-04-12T04:06:29.248Z,11.64
2018-04-12T04:07:29.246Z,11.54
2018-04-12T04:08:29.240Z,11.51
2018-04-12T04:09:29.229Z,11.48
2018-04-12T04:10:29.224Z,11.49
2018-04-12T04:11:29.217Z,11.56
2018-04-12T04:12:29.212Z,11.59
2018-04-12T04:13:29.203Z,11.56
2018-04-12T04:14:29.249Z,11.57
2018-04-12T04:15:29.191Z,11.56
2018-04-12T04:16:29.184Z,11.41
2018-04-12T04:17:29.177Z,11.45
2018-04-12T04:18:29.170Z,11.46
2018-04-12T04:19:29.169Z,11.41
2018-04-12T04:20:29.162Z,11.42
2018-04-12T04:21:29.150Z,11.45
2018-04-12T04:22:29.145Z,11.33
2018-04-12T04:23:29.139Z,11.42
2018-04-12T04:24:29.132Z,11.41
2018-04-12T04:25:29.129Z,11.30
2018-04-12T04:26:29.118Z,11.33
2018-04-12T04:27:29.116Z,11.35
2018-04-12T04:28:29.110Z,11.31
2018-04-12T04:29:29.099Z,11.36
2018-04-12T04:30:29.093Z,11.35
2018-04-12T04:31:29.092Z,11.31
2018-04-12T04:32:29.089Z,11.26
2018-04-12T04:33:29.073Z,11.21
2018-04-12T04:34:29.068Z,11.28
2018-04-12T04:35:29.065Z,11.30
2018-04-12T04:36:29.055Z,11.38
2018-04-12T04:37:29.047Z,11.27
2018-04-12T04:38:29.042Z,11.27
2018-04-12T04:39:29.035Z,11.31
2018-04-12T04:40:29.029Z,11.30
2018-04-12T04:41:29.025Z,11.31
2018-04-12T04:42:29.020Z,11.31
2018-04-12T04:43:29.010Z,11.26
2018-04-12T04:44:29.006Z,11.24
2018-04-12T04:45:28.999Z,11.20
2018-04-12T04:46:28.992Z,11.19
2018-04-12T04:47:28.982Z,11.19
2018-04-12T04:48:28.976Z,11.13
2018-04-12T04:49:28.969Z,11.26
2018-04-12T04:50:28.962Z,11.12
2018-04-12T04:51:28.957Z,11.20
2018-04-12T04:52:28.951Z,11.21
2018-04-12T04:53:28.943Z,11.21
2018-04-12T04:54:28.936Z,11.23
2018-04-12T04:55:28.933Z,11.12
2018-04-12T04:56:28.924Z,11.16
2018-04-12T04:57:28.916Z,11.24
2018-04-12T04:58:28.909Z,11.21
2018-04-12T04:59:28.909Z,11.24
2018-04-12T05:00:28.901Z,11.33
2018-04-12T05:01:28.901Z,11.31
2018-04-12T05:02:28.888Z,11.38
2018-04-12T05:03:28.881Z,11.31
2018-04-12T05:04:28.875Z,11.28
2018-04-12T05:05:28.872Z,11.26
2018-04-12T05:06:28.857Z,11.30
2018-04-12T05:07:28.859Z,11.35
2018-04-12T05:08:28.846Z,11.33
2018-04-12T05:09:28.837Z,11.30
2018-04-12T05:10:28.832Z,11.46
2018-04-12T05:11:28.830Z,11.46
2018-04-12T05:12:28.820Z,11.49
2018-04-12T05:13:28.817Z,11.48
2018-04-12T05:14:28.811Z,11.51
2018-04-12T05:15:28.865Z,11.45
2018-04-12T05:16:28.793Z,11.41
2018-04-12T05:17:28.792Z,11.57
2018-04-12T05:18:28.790Z,11.54
2018-04-12T05:19:28.774Z,11.62
2018-04-12T05:20:28.771Z,11.72
2018-04-12T05:21:28.761Z,11.66
2018-04-12T05:22:28.756Z,11.75
2018-04-12T05:23:28.748Z,11.78
2018-04-12T05:24:28.743Z,11.84
2018-04-12T05:25:28.740Z,11.87
2018-04-12T05:26:28.734Z,11.94
2018-04-12T05:27:28.724Z,12.05
2018-04-12T05:28:28.717Z,12.16
2018-04-12T05:29:28.711Z,12.22
2018-04-12T05:30:28.707Z,12.31
2018-04-12T05:31:28.701Z,12.44
2018-04-12T05:32:28.695Z,12.52
2018-04-12T05:33:28.687Z,12.54
2018-04-12T05:34:28.682Z,12.76
2018-04-12T05:35:28.678Z,12.73
2018-04-12T05:36:28.671Z,12.80
2018-04-12T05:37:28.669Z,12.77
2018-04-12T05:38:28.664Z,12.79
2018-04-12T05:39:28.658Z,12.87
2018-04-12T05:40:28.651Z,12.84
2018-04-12T05:41:28.644Z,12.76
2018-04-12T05:42:28.643Z,12.77
2018-04-12T05:43:28.637Z,12.91
2018-04-12T05:44:28.639Z,12.96
2018-04-12T05:45:28.622Z,13.06
2018-04-12T05:46:28.619Z,13.07
2018-04-12T05:47:28.612Z,12.88
2018-04-12T05:48:28.609Z,12.95
2018-04-12T05:49:28.602Z,12.99
2018-04-12T05:50:28.597Z,13.01
2018-04-12T05:51:28.592Z,12.89
2018-04-12T05:52:28.588Z,12.89
2018-04-12T05:53:28.583Z,12.96
2018-04-12T05:54:28.577Z,13.01
2018-04-12T05:55:28.577Z,13.03
2018-04-12T05:56:28.573Z,13.09
2018-04-12T05:57:28.567Z,13.12
2018-04-12T05:58:28.562Z,13.09
2018-04-12T05:59:28.554Z,13.07
2018-04-12T06:00:28.549Z,12.88
2018-04-12T06:01:28.546Z,12.77
2018-04-12T06:02:28.540Z,12.85
2018-04-12T06:03:28.536Z,12.95
2018-04-12T06:04:28.531Z,12.88
2018-04-12T06:05:28.528Z,12.89
2018-04-12T06:06:28.521Z,12.88
2018-04-12T06:07:28.518Z,12.95
2018-04-12T06:08:28.514Z,12.99
2018-04-12T06:09:28.512Z,12.99
2018-04-12T06:10:28.508Z,13.13
2018-04-12T06:11:28.500Z,13.12
2018-04-12T06:12:28.495Z,13.16
2018-04-12T06:13:28.490Z,13.12
2018-04-12T06:14:28.485Z,13.16
2018-04-12T06:15:28.486Z,13.16
2018-04-12T06:16:28.482Z,13.10
2018-04-12T06:17:28.472Z,13.14
2018-04-12T06:18:28.469Z,13.25
2018-04-12T06:19:28.465Z,13.17
2018-04-12T06:20:28.475Z,13.25
2018-04-12T06:21:28.455Z,13.19
2018-04-12T06:22:28.452Z,13.14
2018-04-12T06:23:28.449Z,13.29
2018-04-12T06:24:28.444Z,13.32
2018-04-12T06:25:28.440Z,13.35
2018-04-12T06:26:28.435Z,13.36
2018-04-12T06:27:28.435Z,13.54
2018-04-12T06:28:28.462Z,13.57
2018-04-12T06:29:28.423Z,13.57
2018-04-12T06:30:28.419Z,13.55
2018-04-12T06:31:28.414Z,13.39
2018-04-12T06:32:28.411Z,13.41
2018-04-12T06:33:28.406Z,13.38
2018-04-12T06:34:28.402Z,13.43
2018-04-12T06:35:28.403Z,13.28
2018-04-12T06:36:28.406Z,13.31
2018-04-12T06:37:28.391Z,13.28
2018-04-12T06:38:28.387Z,13.24
2018-04-12T06:39:28.387Z,13.29
2018-04-12T06:40:28.383Z,13.21
2018-04-12T06:41:28.375Z,13.29
2018-04-12T06:42:28.370Z,13.16
2018-04-12T06:43:28.367Z,13.21
2018-04-12T06:44:28.364Z,13.01
2018-04-12T06:45:28.358Z,13.01
2018-04-12T06:46:28.355Z,13.09
2018-04-12T06:47:28.352Z,13.10
2018-04-12T06:48:28.347Z,13.13
2018-04-12T06:49:28.347Z,13.17
2018-04-12T06:50:28.344Z,13.14
2018-04-12T06:51:28.335Z,13.10
2018-04-12T06:52:28.330Z,13.14
2018-04-12T06:53:28.330Z,13.14
2018-04-12T06:54:28.327Z,13.04
2018-04-12T06:55:28.320Z,13.09
2018-04-12T06:56:28.315Z,13.16
2018-04-12T06:57:28.311Z,13.19
2018-04-12T06:58:28.306Z,13.14
2018-04-12T06:59:28.311Z,13.19
2018-04-12T07:00:28.298Z,13.22
2018-04-12T07:01:28.293Z,13.13
2018-04-12T07:02:28.289Z,13.29
2018-04-12T07:03:28.287Z,13.38
2018-04-12T07:04:28.281Z,13.38
2018-04-12T07:05:28.277Z,13.44
2018-04-12T07:06:28.277Z,13.50
2018-04-12T07:07:28.273Z,13.73
2018-04-12T07:08:28.272Z,13.81
2018-04-12T07:09:28.262Z,13.62
2018-04-12T07:10:28.258Z,13.50
2018-04-12T07:11:28.257Z,13.48
2018-04-12T07:12:28.254Z,13.47
2018-04-12T07:13:28.246Z,13.59
2018-04-12T07:14:28.242Z,13.55
2018-04-12T07:15:28.238Z,13.38
2018-04-12T07:16:28.235Z,13.31
2018-04-12T07:17:28.236Z,13.41
2018-04-12T07:18:28.229Z,13.41
2018-04-12T07:19:28.225Z,13.24
2018-04-12T07:20:28.220Z,13.29
2018-04-12T07:21:28.220Z,13.17
2018-04-12T07:22:28.216Z,13.14
2018-04-12T07:23:28.208Z,13.13
2018-04-12T07:24:28.205Z,13.24
2018-04-12T07:25:28.207Z,13.31
2018-04-12T07:26:28.202Z,13.31
2018-04-12T07:27:28.193Z,13.36
2018-04-12T07:28:28.191Z,13.22
2018-04-12T07:29:28.186Z,13.09
2018-04-12T07:30:28.182Z,13.07
2018-04-12T07:31:28.179Z,13.12
2018-04-12T07:32:28.176Z,13.16
2018-04-12T07:33:28.175Z,13.16
2018-04-12T07:34:28.170Z,13.22
2018-04-12T07:35:28.163Z,13.17
2018-04-12T07:36:28.159Z,13.09
2018-04-12T07:37:28.160Z,13.21
2018-04-12T07:38:28.151Z,13.31
2018-04-12T07:39:28.148Z,13.44
2018-04-12T07:40:28.144Z,13.44
2018-04-12T07:41:28.139Z,13.48
2018-04-12T07:42:28.136Z,13.36
2018-04-12T07:43:28.132Z,13.39
2018-04-12T07:44:28.129Z,13.44
2018-04-12T07:45:28.129Z,13.46
2018-04-12T07:46:28.124Z,13.44
2018-04-12T07:47:28.117Z,13.28
2018-04-12T07:48:28.113Z,13.46
2018-04-12T07:49:28.108Z,13.46
2018-04-12T07:50:28.110Z,13.43
2018-04-12T07:51:28.109Z,13.50
2018-04-12T07:52:28.101Z,13.59
2018-04-12T07:53:28.095Z,13.66
2018-04-12T07:54:28.091Z,13.71
2018-04-12T07:55:28.144Z,13.73
2018-04-12T07:56:28.083Z,13.81
2018-04-12T07:57:28.078Z,13.90
2018-04-12T07:58:28.074Z,13.81
2018-04-12T07:59:28.072Z,13.87
2018-04-12T08:00:28.067Z,13.84
2018-04-12T08:01:28.062Z,13.80
2018-04-12T08:02:28.059Z,13.87
2018-04-12T08:03:28.059Z,13.84
2018-04-12T08:04:28.055Z,13.86
2018-04-12T08:05:28.054Z,13.83
2018-04-12T08:06:28.047Z,13.81
2018-04-12T08:07:28.039Z,13.79
2018-04-12T08:08:28.037Z,13.87
2018-04-12T08:09:28.031Z,13.91
2018-04-12T08:10:28.031Z,13.98
2018-04-12T08:11:28.023Z,13.90
2018-04-12T08:12:28.020Z,13.94
2018-04-12T08:13:28.018Z,13.98
2018-04-12T08:14:28.011Z,13.88
2018-04-12T08:15:28.009Z,13.90
2018-04-12T08:16:28.004Z,13.98
2018-04-12T08:17:28.003Z,13.96
2018-04-12T08:18:27.999Z,13.98
2018-04-12T08:19:27.991Z,13.94
2018-04-12T08:20:27.989Z,13.98
2018-04-12T08:21:27.983Z,14.01
2018-04-12T08:22:27.981Z,14.08
2018-04-12T08:23:27.981Z,14.05
2018-04-12T08:24:27.977Z,13.94
2018-04-12T08:25:27.970Z,13.96
2018-04-12T08:26:27.965Z,13.98
2018-04-12T08:27:27.963Z,14.01
2018-04-12T08:28:27.958Z,13.96
2018-04-12T08:29:27.954Z,13.98
2018-04-12T08:30:27.949Z,14.02
2018-04-12T08:31:27.947Z,13.94
2018-04-12T08:32:27.942Z,13.99
2018-04-12T08:33:27.944Z,14.01
2018-04-12T08:34:27.940Z,13.99
2018-04-12T08:35:27.934Z,14.04
2018-04-12T08:36:27.931Z,14.01
2018-04-12T08:37:27.924Z,13.98
2018-04-12T08:38:27.920Z,13.79
2018-04-12T08:39:27.920Z,13.75
2018-04-12T08:40:27.911Z,13.72
2018-04-12T08:41:27.907Z,13.63
2018-04-12T08:42:27.903Z,13.66
2018-04-12T08:43:27.906Z,13.63
2018-04-12T08:44:27.900Z,13.68
2018-04-12T08:45:27.892Z,13.54
2018-04-12T08:46:27.888Z,13.50
2018-04-12T08:47:27.887Z,13.50
2018-04-12T08:48:27.885Z,13.53
2018-04-12T08:49:27.876Z,13.48
2018-04-12T08:50:27.871Z,13.69
2018-04-12T08:51:27.867Z,13.73
2018-04-12T08:52:27.869Z,13.75
2018-04-12T08:53:27.858Z,13.75
2018-04-12T08:54:27.853Z,13.87
2018-04-12T08:55:27.850Z,13.99
2018-04-12T08:56:27.846Z,13.96
2018-04-12T08:57:27.845Z,13.99
2018-04-12T08:58:27.841Z,13.96
2018-04-12T08:59:27.835Z,13.98
2018-04-12T09:00:27.829Z,14.06
2018-04-12T09:01:27.828Z,14.02
2018-04-12T09:02:27.825Z,14.11
2018-04-12T09:03:27.818Z,14.04
2018-04-12T09:04:27.814Z,14.02
2018-04-12T09:05:27.808Z,14.11
2018-04-12T09:06:27.803Z,14.24
2018-04-12T09:07:27.800Z,14.13
2018-04-12T09:08:27.796Z,14.17
2018-04-12T09:09:27.792Z,14.20
2018-04-12T09:10:27.787Z,14.24
2018-04-12T09:11:27.783Z,14.24
2018-04-12T09:12:27.781Z,14.34
2018-04-12T09:13:27.777Z,14.36
2018-04-12T09:14:27.775Z,14.44
2018-04-12T09:15:27.784Z,14.41
2018-04-12T09:16:27.768Z,14.45
2018-04-12T09:17:27.760Z,14.56
2018-04-12T09:18:27.755Z,14.59
2018-04-12T09:19:27.757Z,14.57
2018-04-12T09:20:27.753Z,14.66
2018-04-12T09:21:27.748Z,14.71
2018-04-12T09:22:27.741Z,15.03
2018-04-12T09:23:27.737Z,15.33
2018-04-12T09:24:27.735Z,15.67
2018-04-12T09:25:27.731Z,15.89
2018-04-12T09:26:27.728Z,16.03
2018-04-12T09:27:27.725Z,15.85
2018-04-12T09:28:27.726Z,16.16
2018-04-12T09:29:27.722Z,16.26
2018-04-12T09:30:27.719Z,16.33
2018-04-12T09:31:27.716Z,16.26
2018-04-12T09:32:27.716Z,16.51
2018-04-12T09:33:27.713Z,16.60
2018-04-12T09:34:27.711Z,16.81
2018-04-12T09:35:27.705Z,16.96
2018-04-12T09:36:27.704Z,17.22
2018-04-12T09:37:27.702Z,17.58
2018-04-12T09:38:27.701Z,18.13
2018-04-12T09:39:27.702Z,18.49
2018-04-12T09:40:27.700Z,18.97
2018-04-12T09:41:27.698Z,20.01
2018-04-12T09:42:27.699Z,20.82
2018-04-12T09:43:27.698Z,20.72
2018-04-12T09:44:27.700Z,20.85
2018-04-12T09:45:27.700Z,21.77
2018-04-12T09:46:27.701Z,22.66
2018-04-12T09:47:27.707Z,21.67
2018-04-12T09:48:27.710Z,21.86
2018-04-12T09:49:27.721Z,22.35
2018-04-12T09:50:27.711Z,22.31
2018-04-12T09:51:27.719Z,22.69
2018-04-12T09:52:27.735Z,23.11
2018-04-12T09:53:27.723Z,23.72
2018-04-12T09:54:27.730Z,23.39
2018-04-12T09:55:27.734Z,22.86
2018-04-12T09:56:27.739Z,22.76
2018-04-12T09:57:27.745Z,23.01
2018-04-12T09:58:27.750Z,23.45
2018-04-12T09:59:27.756Z,22.72
2018-04-12T10:00:27.763Z,22.70
2018-04-12T10:01:27.771Z,22.64
2018-04-12T10:02:27.779Z,22.38
2018-04-12T10:03:27.780Z,21.98
2018-04-12T10:04:27.787Z,21.18
2018-04-12T10:05:27.796Z,20.69
2018-04-12T10:06:27.803Z,20.40
2018-04-12T10:07:27.805Z,20.35
2018-04-12T10:08:27.812Z,19.82
2018-04-12T10:09:27.817Z,19.75
2018-04-12T10:10:27.822Z,20.31
2018-04-12T10:11:27.828Z,20.40
2018-04-12T10:12:27.835Z,20.44
2018-04-12T10:13:27.839Z,20.72
2018-04-12T10:14:27.860Z,20.66
2018-04-12T10:15:27.851Z,20.85
2018-04-12T10:16:27.856Z,20.85
2018-04-12T10:17:27.892Z,21.31
2018-04-12T10:18:27.864Z,22.01
2018-04-12T10:19:27.875Z,22.24
2018-04-12T10:20:27.879Z,22.12
2018-04-12T10:21:27.879Z,22.31
2018-04-12T10:22:27.886Z,22.52
2018-04-12T10:23:27.895Z,22.46
2018-04-12T10:24:27.901Z,22.23
2018-04-12T10:25:27.903Z,22.96
2018-04-12T10:26:27.910Z,22.97
2018-04-12T10:27:27.915Z,23.29
2018-04-12T10:28:27.924Z,23.94
2018-04-12T10:29:27.927Z,23.64
2018-04-12T10:30:27.934Z,23.53
2018-04-12T10:31:27.942Z,23.00
2018-04-12T10:32:27.949Z,23.57
2018-04-12T10:33:27.957Z,23.89
2018-04-12T10:34:27.965Z,23.56
2018-04-12T10:35:27.968Z,22.54
2018-04-12T10:36:27.978Z,21.67
2018-04-12T10:37:27.986Z,21.13
2018-04-12T10:38:27.999Z,21.31
2018-04-12T10:39:27.998Z,21.52
2018-04-12T10:40:28.004Z,21.37
2018-04-12T10:41:28.010Z,21.34
2018-04-12T10:42:28.016Z,20.90
2018-04-12T10:43:28.024Z,20.30
2018-04-12T10:44:28.052Z,19.60
2018-04-12T10:45:28.038Z,19.62
2018-04-12T10:46:28.045Z,19.78
2018-04-12T10:47:28.049Z,19.76
2018-04-12T10:48:28.051Z,19.45
2018-04-12T10:49:28.057Z,19.15
2018-04-12T10:50:28.062Z,18.78
2018-04-12T10:51:28.066Z,18.74
2018-04-12T10:52:28.071Z,18.65
2018-04-12T10:53:28.076Z,18.36
2018-04-12T10:54:28.080Z,18.47
2018-04-12T10:55:28.088Z,18.66
2018-04-12T10:56:28.089Z,18.60
2018-04-12T10:57:28.095Z,18.71
2018-04-12T10:58:28.098Z,18.84
2018-04-12T10:59:28.099Z,19.07
2018-04-12T11:00:28.105Z,19.21
2018-04-12T11:01:28.105Z,19.60
2018-04-12T11:02:28.110Z,19.55
2018-04-12T11:03:28.145Z,19.27
2018-04-12T11:04:28.118Z,19.35
2018-04-12T11:05:28.118Z,19.45
2018-04-12T11:06:28.119Z,19.75
2018-04-12T11:07:28.124Z,19.60
2018-04-12T11:08:28.127Z,19.53
2018-04-12T11:09:28.132Z,19.55
2018-04-12T11:10:28.138Z,19.89
2018-04-12T11:11:28.134Z,20.00
2018-04-12T11:12:28.137Z,19.79
2018-04-12T11:13:28.141Z,19.89
2018-04-12T11:14:28.141Z,20.05
2018-04-12T11:15:28.148Z,19.98
2018-04-12T11:16:28.150Z,19.80
2018-04-12T11:17:28.152Z,19.65
2018-04-12T11:18:28.199Z,19.80
2018-04-12T11:19:28.154Z,19.38
2018-04-12T11:20:28.157Z,19.32
2018-04-12T11:21:28.159Z,19.32
2018-04-12T11:22:28.165Z,19.71
2018-04-12T11:23:28.164Z,20.07
2018-04-12T11:24:28.167Z,20.37
2018-04-12T11:25:28.303Z,20.42
2018-04-12T11:26:28.174Z,20.35
2018-04-12T11:27:28.174Z,20.46
2018-04-12T11:28:28.177Z,20.51
2018-04-12T11:29:28.186Z,20.27
2018-04-12T11:30:28.185Z,20.51
2018-04-12T11:31:28.221Z,20.69
2018-04-12T11:32:28.187Z,20.94
2018-04-12T11:33:28.193Z,21.28
2018-04-12T11:34:28.212Z,21.37
2018-04-12T11:35:28.202Z,21.15
2018-04-12T11:36:28.202Z,21.13
2018-04-12T11:37:28.199Z,21.28
2018-04-12T11:38:28.203Z,21.05
2018-04-12T11:39:28.207Z,21.40
2018-04-12T11:40:28.226Z,21.66
2018-04-12T11:41:28.213Z,21.59
2018-04-12T11:42:28.218Z,21.77
2018-04-12T11:43:28.218Z,22.02
2018-04-12T11:44:28.222Z,22.08
2018-04-12T11:45:28.251Z,21.91
2018-04-12T11:46:28.243Z,21.90
2018-04-12T11:47:28.235Z,21.94
2018-04-12T11:48:28.239Z,22.05
2018-04-12T11:49:28.240Z,22.08
2018-04-12T11:50:28.243Z,22.27
2018-04-12T11:51:28.247Z,21.89
2018-04-12T11:52:28.249Z,21.86
2018-04-12T11:53:28.256Z,21.77
2018-04-12T11:54:28.255Z,21.58
2018-04-12T11:55:28.302Z,21.56
2018-04-12T11:56:28.304Z,21.16
2018-04-12T11:57:28.269Z,20.98
2018-04-12T11:58:28.269Z,20.73
2018-04-12T11:59:28.277Z,20.51
2018-04-12T12:00:28.280Z,20.61
2018-04-12T12:01:28.280Z,20.97
2018-04-12T12:02:28.283Z,21.31
2018-04-12T12:03:28.285Z,21.58
2018-04-12T12:04:28.289Z,21.55
2018-04-12T12:05:28.291Z,21.58
2018-04-12T12:06:28.295Z,21.37
2018-04-12T12:07:28.297Z,21.43
2018-04-12T12:08:28.301Z,21.42
2018-04-12T12:09:28.308Z,21.38
2018-04-12T12:10:28.312Z,21.16
2018-04-12T12:11:28.309Z,21.30
2018-04-12T12:12:28.327Z,21.18
2018-04-12T12:13:28.319Z,21.28
2018-04-12T12:14:28.326Z,21.45
2018-04-12T12:15:28.322Z,21.74
2018-04-12T12:16:28.324Z,21.63
2018-04-12T12:17:28.327Z,21.70
2018-04-12T12:18:28.331Z,22.02
2018-04-12T12:19:28.335Z,21.94
2018-04-12T12:20:28.338Z,22.15
2018-04-12T12:21:28.341Z,22.35
2018-04-12T12:22:28.346Z,22.19
2018-04-12T12:23:28.348Z,22.09
2018-04-12T12:24:28.351Z,22.33
2018-04-12T12:25:28.352Z,22.24
2018-04-12T12:26:28.356Z,21.85
2018-04-12T12:27:28.364Z,21.66
2018-04-12T12:28:28.409Z,21.63
2018-04-12T12:29:28.367Z,21.71
2018-04-12T12:30:28.371Z,21.59
2018-04-12T12:31:28.377Z,21.53
2018-04-12T12:32:28.382Z,21.45
2018-04-12T12:33:28.381Z,21.40
2018-04-12T12:34:28.383Z,21.40
2018-04-12T12:35:28.386Z,21.52
2018-04-12T12:36:28.392Z,21.68
2018-04-12T12:37:28.392Z,21.86
2018-04-12T12:38:28.397Z,21.70
2018-04-12T12:39:28.400Z,21.86
2018-04-12T12:40:28.405Z,21.91
2018-04-12T12:41:28.410Z,21.94
2018-04-12T12:42:28.413Z,22.06
2018-04-12T12:43:28.413Z,22.14
2018-04-12T12:44:28.416Z,21.90
2018-04-12T12:45:28.424Z,22.08
2018-04-12T12:46:28.426Z,22.15
2018-04-12T12:47:28.426Z,22.20
2018-04-12T12:48:28.429Z,22.05
2018-04-12T12:49:28.431Z,21.82
2018-04-12T12:50:28.470Z,21.53
2018-04-12T12:51:28.439Z,21.61
2018-04-12T12:52:28.443Z,21.66